Time;durP1;ratioP1;P1;durP2;ratioP2;P2;SDS_P1;SDS_P2;PMS_P1;PMS_P2;Temp;Humidity;BMP_temperature;BMP_pressure;BME280_temperature;BME280_humidity;BME280_pressure;Samples;Min_cycle;Max_cycle;Signal;HPM_P1;HPM_P2
2022/11/28 00:00:58;;;;;;;33.85;18.98;;;;;;;-3.21;96.46;101562.00;5032040;28;20048;-63
2022/11/28 00:03:24;;;;;;;32.80;18.15;;;;;;;-3.23;95.61;101552.56;5040606;28;20030;-64
2022/11/28 00:05:50;;;;;;;31.73;17.17;;;;;;;-3.27;96.64;101558.22;5024270;28;20342;-64
2022/11/28 00:08:17;;;;;;;31.10;17.85;;;;;;;-3.56;96.25;101537.78;5042678;28;20074;-64
2022/11/28 00:10:42;;;;;;;33.00;18.45;;;;;;;-3.30;96.62;101557.22;5041095;28;20187;-64
2022/11/28 00:13:08;;;;;;;31.65;17.85;;;;;;;-3.29;96.92;101555.59;5033969;28;20144;-64
2022/11/28 00:15:34;;;;;;;29.70;16.45;;;;;;;-3.34;96.95;101555.25;5023880;28;20030;-64
2022/11/28 00:17:59;;;;;;;30.70;17.55;;;;;;;-3.37;97.60;101557.59;5023681;28;20105;-63
2022/11/28 00:20:25;;;;;;;35.25;18.88;;;;;;;-3.19;96.98;101557.03;5043590;28;20021;-63
2022/11/28 00:22:51;;;;;;;31.42;17.85;;;;;;;-3.22;96.87;101544.16;5042904;28;20071;-64
2022/11/28 00:25:17;;;;;;;33.08;18.35;;;;;;;-3.21;96.04;101551.00;5032926;28;20121;-64
2022/11/28 00:27:42;;;;;;;38.15;19.63;;;;;;;-3.33;96.97;101540.97;5022509;28;20295;-64
2022/11/28 00:30:09;;;;;;;33.00;18.15;;;;;;;-3.21;96.80;101544.25;5024496;28;20021;-63
2022/11/28 00:32:35;;;;;;;33.55;17.50;;;;;;;-3.41;97.07;101539.56;5036489;28;20089;-64
2022/11/28 00:35:01;;;;;;;29.33;16.15;;;;;;;-3.43;97.13;101534.41;5023409;28;20076;-65
2022/11/28 00:37:27;;;;;;;34.53;19.77;;;;;;;-3.39;97.07;101546.50;5035187;28;20037;-63
2022/11/28 00:39:52;;;;;;;29.88;16.73;;;;;;;-3.49;97.50;101528.97;5041443;28;20251;-63
2022/11/28 00:42:20;;;;;;;32.78;18.15;;;;;;;-3.52;97.33;101533.78;5041004;28;20045;-64
2022/11/28 00:44:47;;;;;;;32.35;17.52;;;;;;;-3.45;97.70;101543.53;5027532;28;20033;-65
2022/11/28 00:47:13;;;;;;;34.35;18.40;;;;;;;-3.38;97.64;101522.03;5025219;28;20093;-63
2022/11/28 00:49:39;;;;;;;31.75;17.67;;;;;;;-3.48;97.87;101543.34;5023691;28;20025;-64
2022/11/28 00:52:05;;;;;;;29.30;17.25;;;;;;;-3.63;97.67;101533.09;5027766;28;20344;-64
2022/11/28 00:54:30;;;;;;;23.98;13.57;;;;;;;-3.65;98.82;101543.13;5027138;28;20049;-63
2022/11/28 00:56:56;;;;;;;32.50;18.25;;;;;;;-3.44;98.51;101540.25;5043096;28;20043;-64
2022/11/28 00:59:21;;;;;;;31.60;17.85;;;;;;;-3.39;97.65;101535.47;5024024;28;20054;-63
2022/11/28 01:01:47;;;;;;;26.48;15.30;;;;;;;-3.46;97.84;101554.47;5037530;28;20321;-63
2022/11/28 01:04:16;;;;;;;30.60;17.00;;;;;;;-3.50;98.45;101527.19;5040268;28;20025;-63
2022/11/28 01:06:47;;;;;;;27.90;17.73;;;;;;;-3.44;97.57;101514.06;5038821;28;20379;-63
2022/11/28 01:09:17;;;;;;;32.75;19.23;;;;;;;-3.52;97.51;101521.13;5030278;28;20029;-63
2022/11/28 01:11:44;;;;;;;26.35;15.32;;;;;;;-3.48;97.39;101539.19;5023306;28;20026;-63
2022/11/28 01:14:11;;;;;;;29.98;16.08;;;;;;;-3.58;97.85;101546.94;5040064;28;20041;-64
2022/11/28 01:16:37;;;;;;;25.83;15.82;;;;;;;-3.48;98.26;101546.78;5030072;28;20038;-64
2022/11/28 01:19:03;;;;;;;26.65;15.65;;;;;;;-3.60;97.58;101543.44;5023014;28;20072;-64
2022/11/28 01:21:28;;;;;;;23.70;13.95;;;;;;;-3.74;97.09;101552.63;5023149;28;20022;-66
2022/11/28 01:23:54;;;;;;;25.73;15.85;;;;;;;-3.70;97.51;101543.59;5021993;28;20040;-64
2022/11/28 01:26:23;;;;;;;28.33;16.75;;;;;;;-3.73;97.83;101544.28;5041130;28;20036;-64
2022/11/28 01:28:49;;;;;;;25.70;15.48;;;;;;;-3.65;98.22;101553.25;5033191;28;20261;-64
2022/11/28 01:31:18;;;;;;;27.38;15.60;;;;;;;-3.73;97.86;101569.59;5034244;28;20036;-63
2022/11/28 01:33:44;;;;;;;23.85;15.70;;;;;;;-3.70;97.44;101554.59;5041484;28;20049;-63
2022/11/28 01:36:11;;;;;;;25.40;14.30;;;;;;;-3.97;96.68;101535.91;5026734;28;20214;-63
2022/11/28 01:38:37;;;;;;;26.40;15.88;;;;;;;-3.79;97.82;101554.00;5027030;28;20022;-63
2022/11/28 01:41:03;;;;;;;27.63;14.07;;;;;;;-3.80;97.20;101552.25;5040589;28;20036;-63
2022/11/28 01:43:28;;;;;;;29.35;15.35;;;;;;;-3.86;96.49;101552.69;5042697;28;20033;-64
2022/11/28 01:45:54;;;;;;;24.70;15.18;;;;;;;-3.90;97.22;101560.00;5041996;28;20341;-63
2022/11/28 01:48:26;;;;;;;25.58;16.08;;;;;;;-4.05;97.53;101525.25;5044627;28;20021;-64
2022/11/28 01:50:54;;;;;;;;;;;;;;;-3.66;96.86;101555.69;5027156;28;20203;-64
2022/11/28 01:53:20;;;;;;;25.02;15.23;;;;;;;-3.87;96.35;101552.59;5030129;28;19916;-64
2022/11/28 01:56:19;;;;;;;29.17;16.67;;;;;;;-3.83;95.95;101552.91;5039901;28;20271;-64
2022/11/28 01:58:47;;;;;;;25.42;16.15;;;;;;;-4.01;96.01;101536.47;5050090;28;20041;-64
2022/11/28 02:01:15;;;;;;;23.80;15.68;;;;;;;-4.02;95.80;101542.31;5045786;28;20061;-64
2022/11/28 02:03:46;;;;;;;26.98;17.67;;;;;;;-3.78;96.01;101562.47;5034930;28;20052;-65
2022/11/28 02:06:15;;;;;;;24.80;16.60;;;;;;;-3.72;95.68;101565.41;5045367;28;20025;-65
2022/11/28 02:08:41;;;;;;;24.35;17.40;;;;;;;-3.60;95.55;101560.28;5028392;28;20253;-64
2022/11/28 02:11:44;;;;;;;24.27;16.30;;;;;;;-3.67;94.52;101570.00;5026891;28;20030;-64
2022/11/28 02:14:18;;;;;;;23.65;15.63;;;;;;;-3.73;94.47;101571.25;5028691;28;20101;-65
2022/11/28 02:17:14;;;;;;;26.52;17.30;;;;;;;-3.73;94.89;101568.72;5025999;28;20061;-65
2022/11/28 02:20:10;;;;;;;23.75;16.20;;;;;;;-3.63;94.18;101571.09;5036047;28;20037;-64
2022/11/28 02:22:47;;;;;;;19.15;12.98;;;;;;;-3.88;94.05;101558.44;5033322;28;20033;-64
2022/11/28 02:25:22;;;;;;;19.55;14.02;;;;;;;-3.75;94.20;101573.66;5026417;28;20021;-65
2022/11/28 02:28:06;;;;;;;17.83;12.93;;;;;;;-3.66;93.69;101581.00;5031251;28;20037;-63
2022/11/28 02:31:04;;;;;;;17.67;10.93;;;;;;;-3.74;93.10;101595.66;5042501;28;20068;-64
2022/11/28 02:33:34;;;;;;;14.88;10.80;;;;;;;-3.96;94.00;101598.41;5028189;28;20323;-64
2022/11/28 02:36:12;;;;;;;14.15;10.60;;;;;;;-3.83;93.39;101600.13;5045100;28;20114;-64
2022/11/28 02:39:08;;;;;;;13.45;9.82;;;;;;;-4.06;93.16;101583.34;5025508;28;20156;-64
2022/11/28 02:41:44;;;;;;;11.60;9.07;;;;;;;-4.03;92.69;101607.22;5044625;28;20080;-66
2022/11/28 02:44:21;;;;;;;11.00;8.52;;;;;;;-4.26;92.38;101590.47;5045089;28;20044;-65
2022/11/28 02:47:10;;;;;;;11.18;8.70;;;;;;;-4.22;92.79;101596.59;5031626;28;20033;-65
2022/11/28 02:49:46;;;;;;;15.02;10.10;;;;;;;-4.35;92.31;101578.06;5036594;28;20325;-64
2022/11/28 02:52:19;;;;;;;11.68;8.70;;;;;;;-4.28;92.17;101608.84;5036510;28;20037;-65
2022/11/28 02:54:46;;;;;;;11.02;8.48;;;;;;;-4.19;91.83;101602.75;5025173;28;20252;-65
2022/11/28 02:57:12;;;;;;;11.30;7.90;;;;;;;-4.18;92.17;101604.50;5025011;28;20029;-64
2022/11/28 02:59:37;;;;;;;12.85;9.10;;;;;;;-3.97;92.04;101618.56;5032029;28;20088;-64
2022/11/28 03:02:09;;;;;;;11.10;8.55;;;;;;;-4.12;91.72;101601.50;5040152;28;20033;-65
2022/11/28 03:05:06;;;;;;;11.77;9.32;;;;;;;-4.09;91.43;101610.97;5033327;28;20036;-65
2022/11/28 03:08:05;;;;;;;12.63;8.70;;;;;;;-4.38;91.90;101619.94;5035636;28;20030;-65
2022/11/28 03:10:49;;;;;;;12.38;9.38;;;;;;;-4.18;91.63;101623.88;5033739;28;20029;-64
2022/11/28 03:13:25;;;;;;;13.52;9.75;;;;;;;-4.19;91.84;101590.13;5024673;28;20079;-64
2022/11/28 03:16:03;;;;;;;13.88;10.35;;;;;;;-4.06;91.06;101617.13;5024456;28;20038;-66
2022/11/28 03:18:40;;;;;;;15.63;11.30;;;;;;;-4.27;91.57;101605.53;5025747;28;20199;-65
2022/11/28 03:21:25;;;;;;;13.45;9.25;;;;;;;-4.54;92.87;101602.81;5039187;28;20368;-63
2022/11/28 03:23:58;;;;;;;17.73;11.35;;;;;;;-4.68;93.06;101597.66;5024912;28;20052;-64
2022/11/28 03:26:35;;;;;;;16.60;12.00;;;;;;;-4.61;92.90;101588.88;5056287;28;20198;-64
2022/11/28 03:29:11;;;;;;;18.10;12.00;;;;;;;-4.36;93.06;101621.81;5030158;28;20036;-65
2022/11/28 03:32:04;;;;;;;20.45;12.27;;;;;;;-4.35;93.77;101622.69;5036044;28;20044;-64
2022/11/28 03:34:35;;;;;;;17.48;11.77;;;;;;;-4.68;93.37;101609.41;5039612;28;20037;-65
2022/11/28 03:37:04;;;;;;;19.75;12.63;;;;;;;-4.46;93.06;101613.47;5040827;28;20021;-64
2022/11/28 03:39:42;;;;;;;19.13;12.73;;;;;;;-4.29;92.55;101617.19;5026738;28;20338;-65
2022/11/28 03:42:37;;;;;;;16.73;9.90;;;;;;;-4.51;93.79;101630.84;5043582;28;20030;-66
2022/11/28 03:45:08;;;;;;;19.75;13.27;;;;;;;-4.40;93.62;101636.69;5025112;28;20045;-64
2022/11/28 03:47:40;;;;;;;18.73;13.10;;;;;;;-4.53;93.57;101609.66;5043390;28;20075;-65
2022/11/28 03:50:20;;;;;;;20.38;13.48;;;;;;;-4.55;93.24;101594.34;5043979;28;20049;-66
2022/11/28 03:52:53;;;;;;;20.35;12.05;;;;;;;-4.48;93.10;101632.72;5031107;28;20026;-64
2022/11/28 03:55:39;;;;;;;19.75;13.32;;;;;;;-4.47;93.53;101612.59;5024113;28;20025;-64
2022/11/28 03:58:25;;;;;;;20.38;12.43;;;;;;;-4.54;92.67;101607.88;5035657;28;20029;-65
2022/11/28 04:01:06;;;;;;;20.90;13.23;;;;;;;-4.34;92.38;101645.56;5037180;28;20198;-65
2022/11/28 04:03:58;;;;;;;18.88;11.55;;;;;;;-4.69;93.77;101640.50;5030153;28;20072;-64
2022/11/28 04:06:29;;;;;;;20.50;13.43;;;;;;;-4.57;93.07;101638.00;5024930;28;20042;-65
2022/11/28 04:09:06;;;;;;;20.23;13.07;;;;;;;-4.68;93.50;101625.44;5043604;28;20029;-66
2022/11/28 04:11:43;;;;;;;18.42;12.30;;;;;;;-4.68;94.43;101640.63;5042375;28;20222;-65
2022/11/28 04:14:20;;;;;;;17.42;12.10;;;;;;;-4.79;93.30;101636.44;5030042;28;20069;-65
2022/11/28 04:16:52;;;;;;;20.20;13.50;;;;;;;-4.64;94.18;101650.97;5023829;28;20033;-65
2022/11/28 04:19:22;;;;;;;;;;;;;;;-4.60;93.58;101651.28;5035360;28;20030;-65
2022/11/28 04:21:58;;;;;;;20.27;13.10;;;;;;;-4.66;93.98;101633.13;5024042;28;19928;-65
2022/11/28 04:24:30;;;;;;;21.17;14.07;;;;;;;-4.48;93.64;101632.72;5040977;28;20032;-66
2022/11/28 04:27:03;;;;;;;22.08;14.25;;;;;;;-4.57;92.87;101632.94;5023605;28;20244;-65
2022/11/28 04:29:36;;;;;;;21.98;14.50;;;;;;;-4.42;92.44;101643.25;5034653;28;20034;-66
2022/11/28 04:32:03;;;;;;;17.73;12.80;;;;;;;-4.60;93.42;101630.16;5033950;28;20250;-65
2022/11/28 04:34:31;;;;;;;19.95;13.68;;;;;;;-4.41;93.06;101638.31;5033561;28;20120;-65
2022/11/28 04:37:00;;;;;;;20.60;13.30;;;;;;;-4.54;92.51;101643.28;5028776;28;20058;-65
2022/11/28 04:39:28;;;;;;;20.17;13.30;;;;;;;-4.29;93.19;101642.47;5040592;28;20026;-65
2022/11/28 04:42:03;;;;;;;19.48;13.32;;;;;;;-4.67;93.08;101651.63;5023458;28;20041;-65
2022/11/28 04:44:37;;;;;;;22.77;14.23;;;;;;;-4.47;93.90;101629.44;5041406;28;20022;-65
2022/11/28 04:47:03;;;;;;;23.02;14.13;;;;;;;-4.45;93.88;101656.56;5041106;28;20029;-65
2022/11/28 04:49:30;;;;;;;21.55;14.90;;;;;;;-4.38;93.41;101647.75;5033523;28;20241;-65
2022/11/28 04:52:34;;;;;;;23.75;14.65;;;;;;;-4.42;92.94;101633.16;5034125;28;20064;-65
2022/11/28 04:55:40;;;;;;;21.98;14.50;;;;;;;-4.28;93.07;101652.69;5032719;28;20034;-64
2022/11/28 04:58:17;;;;;;;23.20;14.07;;;;;;;-4.09;92.76;101657.41;5069303;28;20032;-65
2022/11/28 05:00:44;;;;;;;21.48;14.00;;;;;;;-4.02;91.44;101652.00;5037930;28;20337;-66
2022/11/28 05:03:10;;;;;;;18.52;12.77;;;;;;;-4.32;91.80;101654.91;5036695;28;20380;-65
2022/11/28 05:05:48;;;;;;;17.45;11.38;;;;;;;-4.44;92.77;101670.97;5028082;28;20025;-64
2022/11/28 05:08:14;;;;;;;20.38;13.60;;;;;;;-4.22;93.21;101672.47;5031467;28;20022;-64
2022/11/28 05:10:40;;;;;;;19.25;12.98;;;;;;;-4.19;92.19;101667.63;5027523;28;20021;-65
2022/11/28 05:13:06;;;;;;;18.98;13.10;;;;;;;-4.56;92.55;101665.91;5031863;28;20033;-66
2022/11/28 05:15:31;;;;;;;17.58;12.50;;;;;;;-4.42;93.73;101668.53;5029154;28;20322;-64
2022/11/28 05:17:57;;;;;;;18.58;13.00;;;;;;;-4.31;93.42;101669.31;5026982;28;20091;-64
2022/11/28 05:20:23;;;;;;;18.25;11.85;;;;;;;-4.48;93.78;101665.59;5043019;28;20029;-64
2022/11/28 05:22:48;;;;;;;16.00;10.35;;;;;;;-4.62;93.84;101674.69;5031449;28;20082;-64
2022/11/28 05:25:15;;;;;;;19.42;12.68;;;;;;;-4.58;94.56;101676.69;5031476;28;20045;-65
2022/11/28 05:27:40;;;;;;;21.45;13.98;;;;;;;-4.54;94.48;101676.13;5036536;28;20040;-65
2022/11/28 05:30:06;;;;;;;19.42;12.98;;;;;;;-4.57;93.97;101681.84;5036016;28;20029;-65
2022/11/28 05:32:32;;;;;;;19.13;13.52;;;;;;;-4.46;93.83;101695.28;5043899;28;20064;-64
2022/11/28 05:34:58;;;;;;;21.58;14.95;;;;;;;-4.29;93.50;101691.41;5032682;28;20026;-65
2022/11/28 05:37:24;;;;;;;20.98;14.40;;;;;;;-4.21;93.58;101691.94;5034978;28;20048;-65
2022/11/28 05:39:50;;;;;;;20.13;13.75;;;;;;;-4.08;92.74;101699.63;5042383;28;20045;-65
2022/11/28 05:42:16;;;;;;;21.17;13.63;;;;;;;-4.25;92.67;101678.19;5026552;28;20084;-65
2022/11/28 05:44:42;;;;;;;19.58;14.02;;;;;;;-4.04;92.65;101704.13;5044413;28;20056;-66
2022/11/28 05:47:07;;;;;;;20.30;13.95;;;;;;;-3.90;91.69;101701.72;5034233;28;20049;-65
2022/11/28 05:49:33;;;;;;;20.25;14.70;;;;;;;-4.10;91.48;101658.19;5036534;28;20278;-65
2022/11/28 05:51:59;;;;;;;21.73;13.45;;;;;;;-3.85;91.84;101708.84;5028294;28;20249;-65
2022/11/28 05:54:24;;;;;;;20.95;13.50;;;;;;;-3.87;91.25;101700.25;5026793;28;20033;-65
2022/11/28 05:56:50;;;;;;;19.25;13.65;;;;;;;-3.93;91.68;101712.50;5046117;28;20052;-65
2022/11/28 05:59:15;;;;;;;20.95;14.35;;;;;;;-3.78;91.52;101716.88;5030303;28;20044;-66
2022/11/28 06:01:41;;;;;;;18.88;12.02;;;;;;;-4.02;91.23;101722.84;5037010;28;20021;-64
2022/11/28 06:04:07;;;;;;;19.17;13.13;;;;;;;-4.03;91.53;101721.09;5039866;28;20271;-64
2022/11/28 06:06:33;;;;;;;18.05;13.00;;;;;;;-4.04;91.78;101733.63;5027076;28;20022;-65
2022/11/28 06:08:59;;;;;;;18.70;12.43;;;;;;;-4.08;92.16;101727.47;5045793;28;20021;-65
2022/11/28 06:11:27;;;;;;;20.40;12.50;;;;;;;-4.03;91.91;101726.16;5027903;28;20143;-65
2022/11/28 06:13:53;;;;;;;19.25;13.43;;;;;;;-3.93;91.67;101726.78;5025721;28;20116;-65
2022/11/28 06:16:25;;;;;;;19.67;14.38;;;;;;;-4.14;91.97;101703.41;5025383;28;20109;-64
2022/11/28 06:18:55;;;;;;;17.75;12.60;;;;;;;-4.10;91.48;101730.69;5025971;28;20097;-65
2022/11/28 06:21:21;;;;;;;23.27;15.18;;;;;;;-3.83;92.39;101726.66;5027996;28;20088;-66
2022/11/28 06:23:48;;;;;;;18.83;12.02;;;;;;;-3.98;91.87;101736.59;5026046;28;20038;-67
2022/11/28 06:26:17;;;;;;;16.23;12.23;;;;;;;-4.28;92.17;101712.53;5025277;28;20029;-65
2022/11/28 06:28:43;;;;;;;16.77;10.60;;;;;;;-4.28;92.71;101722.63;5035802;28;20029;-64
2022/11/28 06:31:18;;;;;;;19.25;12.85;;;;;;;-4.19;93.17;101733.41;5038593;28;20042;-66
2022/11/28 06:33:43;;;;;;;17.63;12.68;;;;;;;-4.08;92.40;101734.19;5025372;28;20036;-66
2022/11/28 06:36:10;;;;;;;19.63;13.02;;;;;;;-4.05;91.93;101726.78;5025661;28;20049;-65
2022/11/28 06:38:36;;;;;;;18.58;12.52;;;;;;;-3.93;91.56;101729.31;5042750;28;20018;-66
2022/11/28 06:41:07;;;;;;;19.17;12.75;;;;;;;-4.11;91.74;101714.59;5032077;28;20061;-64
2022/11/28 06:43:33;;;;;;;19.77;13.15;;;;;;;-4.11;92.44;101729.78;5025621;28;20022;-65
2022/11/28 06:45:59;;;;;;;18.95;13.07;;;;;;;-3.93;91.58;101736.91;5025420;28;20333;-65
2022/11/28 06:48:26;;;;;;;16.83;11.35;;;;;;;-3.89;90.75;101736.34;5025527;28;20033;-65
2022/11/28 06:50:52;;;;;;;16.55;11.48;;;;;;;-4.19;92.18;101733.41;5025504;28;20033;-65
2022/11/28 06:53:18;;;;;;;22.35;12.88;;;;;;;-3.86;91.06;101740.00;5040175;28;20042;-65
2022/11/28 06:55:44;;;;;;;16.05;11.32;;;;;;;-3.82;90.84;101725.88;5034370;28;20093;-65
2022/11/28 06:58:10;;;;;;;17.75;10.88;;;;;;;-4.01;90.38;101732.19;5025294;28;20071;-65
2022/11/28 07:00:36;;;;;;;17.70;11.52;;;;;;;-3.89;91.57;101736.34;5025511;28;20121;-64
2022/11/28 07:03:02;;;;;;;20.08;12.35;;;;;;;-3.80;90.81;101729.41;5025262;28;20022;-64
2022/11/28 07:05:29;;;;;;;15.90;11.90;;;;;;;-3.83;90.51;101734.28;5041153;28;20041;-64
2022/11/28 07:07:59;;;;;;;17.40;11.88;;;;;;;-3.98;90.29;101734.06;5024937;28;20030;-65
2022/11/28 07:10:26;;;;;;;18.25;11.50;;;;;;;-4.16;91.34;101723.53;5042816;28;20029;-65
2022/11/28 07:12:58;;;;;;;14.75;11.02;;;;;;;-4.12;91.13;101720.41;5027194;28;20116;-65
2022/11/28 07:15:24;;;;;;;16.70;11.18;;;;;;;-4.25;91.11;101743.97;5044399;28;20096;-65
2022/11/28 07:17:50;;;;;;;15.07;10.68;;;;;;;-4.25;91.47;101748.16;5044739;28;20029;-64
2022/11/28 07:20:16;;;;;;;15.25;10.80;;;;;;;-4.06;90.39;101740.22;5029821;28;20097;-64
2022/11/28 07:22:42;;;;;;;15.65;10.90;;;;;;;-3.95;90.76;101759.56;5027594;28;20195;-65
2022/11/28 07:25:09;;;;;;;15.35;11.27;;;;;;;-3.97;90.50;101755.19;5024525;28;20400;-65
2022/11/28 07:27:35;;;;;;;17.15;11.25;;;;;;;-4.07;91.41;101749.47;5025010;28;20025;-66
2022/11/28 07:30:01;;;;;;;16.40;11.10;;;;;;;-4.04;90.55;101749.69;5043919;28;20171;-66
2022/11/28 07:32:30;;;;;;;15.18;10.45;;;;;;;-3.98;90.78;101741.66;5027972;28;20018;-65
2022/11/28 07:34:55;;;;;;;15.15;10.15;;;;;;;-3.99;90.30;101744.94;5036184;28;20017;-65
2022/11/28 07:37:21;;;;;;;17.45;11.18;;;;;;;-3.91;90.59;101751.44;5040867;28;20033;-65
2022/11/28 07:39:47;;;;;;;14.82;10.80;;;;;;;-3.92;90.49;101749.69;5042440;28;20026;-66
2022/11/28 07:42:12;;;;;;;17.48;12.27;;;;;;;-3.92;90.55;101756.38;5043890;28;20053;-65
2022/11/28 07:44:38;;;;;;;16.35;11.50;;;;;;;-4.07;91.09;101752.00;5026717;28;20076;-64
2022/11/28 07:47:03;;;;;;;16.98;11.88;;;;;;;-4.00;90.24;101754.19;5037125;28;20033;-66
2022/11/28 07:49:29;;;;;;;18.52;12.13;;;;;;;-4.29;90.37;101762.25;5035917;28;20033;-64
2022/11/28 07:51:55;;;;;;;16.77;11.68;;;;;;;-4.26;90.88;101759.03;5024906;28;20333;-65
2022/11/28 07:54:21;;;;;;;17.52;11.43;;;;;;;-4.12;90.11;101753.31;5024177;28;20038;-65
2022/11/28 07:56:46;;;;;;;15.05;10.75;;;;;;;-4.13;90.53;101754.09;5042691;28;20036;-65
2022/11/28 07:59:12;;;;;;;19.25;11.65;;;;;;;-3.93;90.03;101764.72;5029835;28;20022;-66
2022/11/28 08:01:38;;;;;;;16.55;11.55;;;;;;;-4.05;89.53;101773.22;5032785;28;20467;-65
2022/11/28 08:04:06;;;;;;;19.15;10.93;;;;;;;-4.21;90.54;101750.13;5028532;28;20064;-65
2022/11/28 08:06:36;;;;;;;16.92;10.70;;;;;;;-4.17;90.00;101739.47;5043815;28;20371;-65
2022/11/28 08:09:02;;;;;;;16.85;12.07;;;;;;;-3.95;89.70;101769.69;5024783;28;20026;-67
2022/11/28 08:11:29;;;;;;;16.15;11.25;;;;;;;-4.05;90.14;101773.22;5054948;28;20032;-65
2022/11/28 08:13:56;;;;;;;16.48;9.88;;;;;;;-4.06;89.70;101773.09;5031985;28;20130;-66
2022/11/28 08:16:23;;;;;;;15.05;10.13;;;;;;;-4.16;89.24;101756.41;5030295;28;20096;-65
2022/11/28 08:18:51;;;;;;;17.02;11.07;;;;;;;-3.90;89.23;101782.69;5041097;28;20333;-66
2022/11/28 08:21:20;;;;;;;18.58;12.27;;;;;;;-4.18;90.09;101750.34;5028244;28;20032;-65
2022/11/28 08:23:45;;;;;;;16.40;11.23;;;;;;;-3.89;89.23;101776.84;5030124;28;20033;-66
2022/11/28 08:26:16;;;;;;;16.92;11.63;;;;;;;-3.95;88.59;101773.88;5033167;28;20030;-66
2022/11/28 08:28:42;;;;;;;17.05;11.88;;;;;;;-4.01;90.04;101797.09;5027360;28;20065;-66
2022/11/28 08:31:17;;;;;;;18.75;13.00;;;;;;;-3.81;88.66;101761.41;5028460;28;20037;-66
2022/11/28 08:33:44;;;;;;;18.08;12.13;;;;;;;-3.84;87.94;101771.34;5025161;28;20032;-65
2022/11/28 08:36:13;;;;;;;17.73;12.07;;;;;;;-3.74;88.13;101795.66;5038192;28;20018;-65
2022/11/28 08:38:40;;;;;;;16.38;11.45;;;;;;;-3.79;87.70;101789.41;5040629;28;20381;-66
2022/11/28 08:41:09;;;;;;;17.83;12.05;;;;;;;-3.84;87.52;101771.34;5030297;28;20033;-65
2022/11/28 08:43:36;;;;;;;16.98;10.52;;;;;;;-3.78;87.17;101785.22;5031733;28;20041;-64
2022/11/28 08:46:03;;;;;;;16.00;11.02;;;;;;;-3.94;88.28;101781.59;5031831;28;20076;-66
2022/11/28 08:48:29;;;;;;;17.50;11.35;;;;;;;-3.91;88.48;101770.81;5039752;28;20028;-65
2022/11/28 08:50:55;;;;;;;15.23;10.50;;;;;;;-3.90;88.39;101797.88;5024804;28;20022;-65
2022/11/28 08:53:21;;;;;;;15.00;10.70;;;;;;;-3.90;88.55;101792.81;5021961;28;20099;-66
2022/11/28 08:55:47;;;;;;;13.88;9.88;;;;;;;-3.92;87.61;101791.81;5033605;28;20290;-64
2022/11/28 08:58:13;;;;;;;15.02;10.05;;;;;;;-3.92;88.21;101799.41;5039375;28;20105;-65
2022/11/28 09:00:41;;;;;;;13.35;9.07;;;;;;;-3.79;87.92;101797.00;5039632;28;20203;-66
2022/11/28 09:03:09;;;;;;;14.10;9.90;;;;;;;-3.80;87.12;101800.28;5028898;28;20321;-66
2022/11/28 09:05:34;;;;;;;16.13;9.18;;;;;;;-3.71;87.25;101795.84;5028152;28;20018;-65
2022/11/28 09:08:00;;;;;;;14.32;9.10;;;;;;;-3.52;87.14;101797.16;5031349;28;20048;-66
2022/11/28 09:10:26;;;;;;;15.77;10.13;;;;;;;-3.74;86.65;101800.72;5030884;28;20030;-66
2022/11/28 09:12:51;;;;;;;12.98;9.98;;;;;;;-3.55;86.74;101797.84;5034873;28;20322;-65
2022/11/28 09:15:18;;;;;;;13.02;9.45;;;;;;;-3.63;87.21;101796.41;5025263;28;20033;-66
2022/11/28 09:17:44;;;;;;;15.98;10.23;;;;;;;-3.62;87.76;101795.63;5036512;28;20385;-66
2022/11/28 09:20:11;;;;;;;12.65;9.07;;;;;;;-3.81;86.56;101784.19;5024516;28;20056;-66
2022/11/28 09:22:36;;;;;;;15.00;9.55;;;;;;;-3.70;87.18;101769.78;5035325;28;20022;-66
2022/11/28 09:25:02;;;;;;;16.17;10.43;;;;;;;-3.50;86.35;101796.50;5030847;28;20025;-65
2022/11/28 09:27:29;;;;;;;13.35;9.27;;;;;;;-3.58;86.25;101791.66;5023309;28;20037;-66
2022/11/28 09:29:55;;;;;;;13.85;8.52;;;;;;;-3.82;87.02;101784.09;5040545;28;20033;-66
2022/11/28 09:32:20;;;;;;;15.38;10.23;;;;;;;-3.51;87.03;101793.84;5040128;28;20028;-66
2022/11/28 09:34:46;;;;;;;15.43;10.20;;;;;;;-3.69;87.17;101789.28;5032223;28;20029;-65
2022/11/28 09:37:11;;;;;;;14.68;9.93;;;;;;;-3.47;86.87;101796.69;5022596;28;20030;-65
2022/11/28 09:39:37;;;;;;;13.82;9.07;;;;;;;-3.54;85.67;101799.56;5022957;28;20314;-65
2022/11/28 09:42:10;;;;;;;13.40;8.98;;;;;;;-3.76;86.73;101794.66;5042585;28;20021;-65
2022/11/28 09:44:44;;;;;;;12.82;8.75;;;;;;;-3.64;86.01;101798.06;5026546;28;20029;-66
2022/11/28 09:47:25;;;;;;;14.25;9.43;;;;;;;-3.87;86.66;101787.97;5029811;28;20022;-65
2022/11/28 09:50:15;;;;;;;12.20;8.35;;;;;;;-3.85;86.91;101788.94;5030954;28;20033;-66
2022/11/28 09:52:57;;;;;;;11.77;8.65;;;;;;;-3.61;86.07;101792.31;5036203;28;20241;-65
2022/11/28 09:55:41;;;;;;;12.82;9.30;;;;;;;-3.65;86.15;101797.94;5029505;28;20029;-66
2022/11/28 09:58:29;;;;;;;12.45;8.70;;;;;;;-3.63;85.88;101798.94;5026323;28;20068;-66
2022/11/28 10:00:57;;;;;;;16.35;10.00;;;;;;;-3.78;85.60;101803.78;5028482;28;20089;-66
2022/11/28 10:03:41;;;;;;;11.95;8.52;;;;;;;-3.87;86.54;101805.69;5045864;28;20037;-65
2022/11/28 10:06:34;;;;;;;8.77;6.72;;;;;;;-4.03;86.60;101811.31;5046285;28;20112;-65
2022/11/28 10:09:23;;;;;;;12.18;9.02;;;;;;;-3.96;86.81;101793.25;5026646;28;20033;-65
2022/11/28 10:12:00;;;;;;;10.35;7.25;;;;;;;-3.89;86.42;101805.56;5043746;28;20097;-65
2022/11/28 10:14:47;;;;;;;12.95;8.35;;;;;;;-3.75;86.47;101808.19;5046317;28;20052;-65
2022/11/28 10:17:27;;;;;;;12.48;8.90;;;;;;;-3.63;85.25;101806.53;5032728;28;20030;-65
2022/11/28 10:19:59;;;;;;;7.85;6.05;;;;;;;-4.05;85.29;101803.56;5035825;28;20033;-64
2022/11/28 10:22:59;;;;;;;10.88;7.55;;;;;;;-3.95;85.92;101791.59;5041004;28;20025;-65
2022/11/28 10:25:33;;;;;;;10.98;7.28;;;;;;;-3.82;85.72;101779.94;5044447;28;20244;-66
2022/11/28 10:28:00;;;;;;;10.05;6.97;;;;;;;-3.57;85.35;101801.03;5045445;28;20080;-65
2022/11/28 10:30:32;;;;;;;8.93;6.35;;;;;;;-3.54;84.11;101796.19;5026309;28;20187;-66
2022/11/28 10:33:07;;;;;;;9.30;6.50;;;;;;;-3.69;84.21;101776.63;5044380;28;20086;-65
2022/11/28 10:35:47;;;;;;;8.73;5.78;;;;;;;-3.64;83.83;101792.13;5030040;28;20033;-66
2022/11/28 10:38:14;;;;;;;7.53;6.28;;;;;;;-3.49;84.07;101785.59;5025628;28;20103;-66
2022/11/28 10:40:51;;;;;;;7.68;5.55;;;;;;;-3.68;83.60;101808.75;5033643;28;20276;-66
2022/11/28 10:43:39;;;;;;;7.95;5.55;;;;;;;-3.53;83.52;101801.34;5040143;28;20133;-66
2022/11/28 10:46:20;;;;;;;8.52;5.05;;;;;;;-3.58;83.93;101796.72;5030048;28;20026;-66
2022/11/28 10:49:08;;;;;;;6.50;3.78;;;;;;;-4.04;83.96;101802.81;5025948;28;20364;-65
2022/11/28 10:51:56;;;;;;;7.53;5.38;;;;;;;-3.91;84.04;101774.19;5036268;28;20034;-66
2022/11/28 10:54:31;;;;;;;6.28;5.00;;;;;;;-3.75;84.12;101803.13;5025329;28;20026;-65
2022/11/28 10:57:05;;;;;;;6.53;5.10;;;;;;;-3.53;82.99;101800.47;5043495;28;20049;-65
2022/11/28 10:59:35;;;;;;;8.48;5.32;;;;;;;-3.84;82.48;101783.13;5044718;28;20567;-66
2022/11/28 11:02:34;;;;;;;10.60;5.97;;;;;;;-3.73;82.52;101787.28;5033029;28;20080;-66
2022/11/28 11:05:00;;;;;;;7.90;6.55;;;;;;;-3.54;82.82;101791.97;5035114;28;20237;-66
2022/11/28 11:07:29;;;;;;;8.00;5.78;;;;;;;-3.89;82.84;101781.91;5037891;28;20034;-65
2022/11/28 11:10:13;;;;;;;9.80;5.90;;;;;;;-3.67;83.31;101777.59;5029622;28;20062;-65
2022/11/28 11:12:39;;;;;;;7.78;6.05;;;;;;;-3.82;83.67;101797.66;5044069;28;20344;-66
2022/11/28 11:15:45;;;;;;;9.63;6.40;;;;;;;-3.68;83.44;101806.22;5034594;28;20101;-66
2022/11/28 11:18:23;;;;;;;9.98;6.90;;;;;;;-3.61;82.71;101783.88;5033584;28;20079;-66
2022/11/28 11:20:49;;;;;;;8.85;6.57;;;;;;;-3.68;83.68;101783.44;5041558;28;20030;-66
2022/11/28 11:23:20;;;;;;;8.25;6.72;;;;;;;-3.77;82.96;101800.50;5026349;28;20091;-65
2022/11/28 11:25:51;;;;;;;11.77;6.72;;;;;;;-3.81;82.96;101801.06;5024713;28;20041;-66
2022/11/28 11:28:46;;;;;;;10.20;7.60;;;;;;;-3.72;84.45;101801.72;5026674;28;20072;-65
2022/11/28 11:31:19;;;;;;;9.35;7.13;;;;;;;-3.80;83.38;101802.81;5034508;28;20036;-65